Time;durP1;ratioP1;P1;durP2;ratioP2;P2;SDS_P1;SDS_P2;PMS_P1;PMS_P2;Temp;Humidity;BMP_temperature;BMP_pressure;BME280_temperature;BME280_humidity;BME280_pressure;Samples;Min_cycle;Max_cycle;Signal;HPM_P1;HPM_P2
2023/05/03 00:00:28;;;;;;;12.60;7.78;;;;;;;11.64;84.24;101750.94;5009941;28;20050;-45
2023/05/03 00:02:56;;;;;;;12.45;7.63;;;;;;;11.66;84.18;101753.38;5010345;28;20140;-45
2023/05/03 00:05:25;;;;;;;13.75;8.50;;;;;;;11.61;84.31;101746.88;5009861;28;20443;-49
2023/05/03 00:07:51;;;;;;;18.13;9.45;;;;;;;11.59;84.34;101748.34;5009741;28;20057;-45
2023/05/03 00:10:18;;;;;;;13.40;8.30;;;;;;;11.56;84.48;101741.50;5009697;28;20056;-47
2023/05/03 00:12:45;;;;;;;12.68;7.97;;;;;;;11.57;84.74;101745.88;5009882;28;20529;-49
2023/05/03 00:15:12;;;;;;;15.50;8.60;;;;;;;11.61;84.50;101746.03;5009458;28;20046;-45
2023/05/03 00:17:38;;;;;;;16.52;8.13;;;;;;;11.65;84.56;101749.00;5009603;28;20045;-45
2023/05/03 00:20:06;;;;;;;15.48;8.55;;;;;;;11.67;84.36;101750.28;5009883;28;20042;-45
2023/05/03 00:22:34;;;;;;;11.75;7.47;;;;;;;11.68;84.45;101749.13;5009780;28;20136;-45
2023/05/03 00:25:01;;;;;;;13.23;7.80;;;;;;;11.65;84.54;101751.75;5009581;28;20049;-45
2023/05/03 00:27:28;;;;;;;12.55;8.15;;;;;;;11.65;84.53;101754.53;5009542;28;20046;-46
2023/05/03 00:29:54;;;;;;;12.02;7.55;;;;;;;11.63;84.69;101749.31;5009032;28;20057;-45
2023/05/03 00:32:21;;;;;;;13.02;7.07;;;;;;;11.59;84.77;101746.38;5008393;28;20133;-45
2023/05/03 00:34:55;;;;;;;12.98;7.75;;;;;;;11.57;84.90;101745.88;5005413;28;20045;-45
2023/05/03 00:37:24;;;;;;;13.27;7.18;;;;;;;11.57;84.78;101739.50;5006750;28;20048;-45
2023/05/03 00:39:51;;;;;;;11.85;6.88;;;;;;;11.57;84.87;101740.31;5006872;28;20071;-45
2023/05/03 00:42:18;;;;;;;13.88;7.85;;;;;;;11.60;84.88;101750.78;5009533;28;20046;-48
2023/05/03 00:44:45;;;;;;;10.73;7.10;;;;;;;11.62;84.68;101740.16;5009303;28;20053;-45
2023/05/03 00:47:12;;;;;;;10.20;6.70;;;;;;;11.63;84.76;101743.75;5009328;28;20045;-45
2023/05/03 00:49:40;;;;;;;9.38;6.05;;;;;;;11.65;84.73;101735.91;5009458;28;20042;-46
2023/05/03 00:52:07;;;;;;;13.23;7.20;;;;;;;11.67;84.67;101732.81;5009323;28;20545;-46
2023/05/03 00:54:35;;;;;;;14.55;6.28;;;;;;;11.69;84.73;101741.66;5009780;28;20053;-49
2023/05/03 00:57:03;;;;;;;11.02;6.40;;;;;;;11.69;84.85;101736.94;5009290;28;20565;-45
2023/05/03 00:59:33;;;;;;;15.65;7.85;;;;;;;11.71;84.79;101739.38;5008899;28;20052;-45
2023/05/03 01:02:00;;;;;;;10.20;6.93;;;;;;;11.72;85.05;101729.91;5008339;28;20148;-45
2023/05/03 01:04:28;;;;;;;14.20;7.90;;;;;;;11.72;84.96;101729.91;5009076;28;20096;-45
2023/05/03 01:07:12;;;;;;;12.15;6.32;;;;;;;11.69;85.08;101720.28;5009049;28;20471;-45
2023/05/03 01:10:27;;;;;;;11.90;7.43;;;;;;;11.70;85.42;101726.66;4997863;28;20050;-45
2023/05/03 01:13:06;;;;;;;12.90;7.13;;;;;;;11.69;85.40;101725.00;4958335;28;20069;-50
2023/05/03 01:15:41;;;;;;;11.80;8.30;;;;;;;11.72;85.34;101716.03;5006658;28;20128;-45
2023/05/03 01:18:14;;;;;;;10.38;6.30;;;;;;;11.71;85.54;101718.00;4991901;28;20049;-45
2023/05/03 01:20:47;;;;;;;10.85;6.57;;;;;;;11.71;85.41;101719.94;5009116;28;20042;-45
2023/05/03 01:23:27;;;;;;;10.20;6.75;;;;;;;11.70;85.43;101713.59;5009146;28;20042;-45
2023/05/03 01:25:53;;;;;;;8.88;6.05;;;;;;;11.71;85.65;101711.63;5009323;28;20061;-45
2023/05/03 01:28:20;;;;;;;16.75;8.63;;;;;;;11.73;85.36;101709.34;5009223;28;20448;-45
2023/05/03 01:30:50;;;;;;;13.70;7.13;;;;;;;11.73;85.44;101709.34;4991522;28;20054;-45
2023/05/03 01:33:52;;;;;;;13.25;8.25;;;;;;;11.69;85.46;101708.38;5009228;28;20042;-45
2023/05/03 01:36:25;;;;;;;13.47;8.27;;;;;;;11.63;85.03;101714.06;4998795;28;20076;-45
2023/05/03 01:38:53;;;;;;;10.50;6.78;;;;;;;11.60;84.79;101706.41;5008632;28;20056;-45
2023/05/03 01:41:23;;;;;;;11.82;8.13;;;;;;;11.58;85.06;101694.00;5024019;28;20434;-45
2023/05/03 01:43:52;;;;;;;15.98;9.43;;;;;;;11.56;85.07;101702.66;5008956;28;20097;-46
2023/05/03 01:46:19;;;;;;;14.98;8.23;;;;;;;11.56;84.95;101702.66;5010713;28;20395;-45
2023/05/03 01:48:46;;;;;;;13.05;8.90;;;;;;;11.53;84.82;101696.94;5008799;28;20057;-45
2023/05/03 01:51:13;;;;;;;13.88;8.02;;;;;;;11.50;85.04;101701.19;5008800;28;20353;-45
2023/05/03 01:53:40;;;;;;;11.63;8.20;;;;;;;11.50;85.15;101697.59;5008873;28;20034;-43
2023/05/03 01:56:07;;;;;;;13.00;8.38;;;;;;;11.49;85.17;101696.78;5008624;28;20569;-47
2023/05/03 01:58:34;;;;;;;12.90;7.80;;;;;;;11.49;85.23;101694.00;5008685;28;20050;-43
2023/05/03 02:01:04;;;;;;;9.73;6.80;;;;;;;11.46;85.42;101700.19;5008402;28;20054;-43
2023/05/03 02:03:31;;;;;;;13.80;8.20;;;;;;;11.44;85.50;101685.84;5008403;28;20148;-43
2023/05/03 02:05:57;;;;;;;12.38;8.15;;;;;;;11.46;85.52;101677.22;5008364;28;20038;-43
2023/05/03 02:08:24;;;;;;;16.73;8.60;;;;;;;11.46;85.50;101683.56;5008474;28;20108;-43
2023/05/03 02:10:51;;;;;;;12.70;9.07;;;;;;;11.45;85.73;101675.59;5008296;28;20395;-43
2023/05/03 02:13:17;;;;;;;15.52;8.23;;;;;;;11.42;85.64;101682.59;5011235;28;20045;-43
2023/05/03 02:15:44;;;;;;;12.73;8.60;;;;;;;11.43;86.07;101678.69;5011968;28;20092;-43
2023/05/03 02:18:11;;;;;;;15.65;8.23;;;;;;;11.44;85.88;101679.50;5012550;28;20095;-43
2023/05/03 02:20:38;;;;;;;12.27;7.85;;;;;;;11.45;85.82;101673.63;5012029;28;20041;-43
2023/05/03 02:23:05;;;;;;;16.48;7.80;;;;;;;11.47;85.85;101684.38;5011716;28;20096;-43
2023/05/03 02:25:31;;;;;;;13.85;9.38;;;;;;;11.46;86.08;101682.78;5011882;28;20084;-43
2023/05/03 02:27:58;;;;;;;15.40;8.32;;;;;;;11.47;85.89;101685.22;5011686;28;20052;-43
2023/05/03 02:30:25;;;;;;;13.93;8.73;;;;;;;11.46;85.70;101682.78;5000360;28;20034;-47
2023/05/03 02:32:51;;;;;;;12.40;7.32;;;;;;;11.42;86.11;101677.06;5011714;28;20476;-47
2023/05/03 02:35:18;;;;;;;14.00;8.85;;;;;;;11.41;86.04;101682.94;5003291;28;20510;-46
2023/05/03 02:37:45;;;;;;;14.43;8.20;;;;;;;11.41;86.34;101680.97;5011534;28;20038;-43
2023/05/03 02:40:11;;;;;;;14.25;7.60;;;;;;;11.42;86.38;101681.78;5011820;28;20057;-43
2023/05/03 02:42:39;;;;;;;12.15;7.75;;;;;;;11.39;86.18;101674.94;5011599;28;20052;-42
2023/05/03 02:45:06;;;;;;;12.82;8.23;;;;;;;11.36;86.05;101678.38;5011135;28;20571;-48
2023/05/03 02:47:33;;;;;;;15.70;8.40;;;;;;;11.31;86.39;101677.72;5011494;28;20500;-43
2023/05/03 02:50:00;;;;;;;12.30;8.82;;;;;;;11.30;86.21;101678.88;5011412;28;20511;-43
2023/05/03 02:52:28;;;;;;;13.48;7.78;;;;;;;11.23;86.40;101671.03;5011768;28;20046;-43
2023/05/03 02:54:54;;;;;;;13.90;8.45;;;;;;;11.20;86.51;101668.91;5011145;28;20062;-42
2023/05/03 02:57:21;;;;;;;12.00;9.00;;;;;;;11.16;86.55;101675.44;5010855;28;20049;-46
2023/05/03 02:59:48;;;;;;;13.55;8.52;;;;;;;11.13;86.79;101671.38;5011280;28;20132;-43
2023/05/03 03:02:14;;;;;;;13.02;8.20;;;;;;;11.09;86.78;101667.63;5002950;23;20086;-46
2023/05/03 03:04:41;;;;;;;17.83;9.93;;;;;;;11.05;86.69;101665.81;4991420;28;20043;-45
2023/05/03 03:07:08;;;;;;;17.48;8.43;;;;;;;11.00;86.89;101652.97;4991180;28;20069;-45
2023/05/03 03:09:35;;;;;;;16.50;8.95;;;;;;;10.97;87.00;101670.22;4991816;28;20042;-44
2023/05/03 03:12:02;;;;;;;14.75;9.60;;;;;;;10.96;87.28;101660.31;4991517;28;20046;-47
2023/05/03 03:14:29;;;;;;;16.85;9.23;;;;;;;10.96;87.07;101663.06;4991133;28;20129;-44
2023/05/03 03:16:57;;;;;;;16.48;8.73;;;;;;;10.97;87.13;101667.47;4991439;28;20097;-44
2023/05/03 03:19:23;;;;;;;16.38;8.88;;;;;;;10.94;87.29;101662.56;4991451;28;20120;-44
2023/05/03 03:21:50;;;;;;;14.15;8.55;;;;;;;10.94;87.26;101671.69;4991440;28;20483;-49
2023/05/03 03:24:17;;;;;;;11.15;7.88;;;;;;;10.93;87.25;101672.81;4990467;28;20050;-44
2023/05/03 03:26:44;;;;;;;13.27;7.95;;;;;;;10.93;87.59;101664.50;4991460;28;20070;-50
2023/05/03 03:29:10;;;;;;;13.88;8.20;;;;;;;10.92;87.53;101667.63;4991260;28;20053;-44
2023/05/03 03:31:37;;;;;;;13.70;8.45;;;;;;;10.91;87.78;101661.25;4984468;28;20050;-44
2023/05/03 03:34:04;;;;;;;13.95;8.35;;;;;;;10.92;87.80;101667.63;4990250;28;20086;-45
2023/05/03 03:36:31;;;;;;;12.25;7.80;;;;;;;10.90;87.83;101665.19;4987654;28;20038;-44
2023/05/03 03:38:57;;;;;;;15.48;8.82;;;;;;;10.89;87.95;101663.53;4990569;28;20082;-44
2023/05/03 03:41:24;;;;;;;12.95;8.13;;;;;;;10.86;88.14;101666.13;4989090;28;20511;-47
2023/05/03 03:43:51;;;;;;;11.32;8.38;;;;;;;10.83;87.95;101659.28;4991262;28;20112;-46
2023/05/03 03:46:17;;;;;;;13.27;8.80;;;;;;;10.82;88.17;101662.41;4990470;28;20484;-44
2023/05/03 03:48:44;;;;;;;16.27;8.75;;;;;;;10.83;88.08;101652.94;4990454;28;20069;-50
2023/05/03 03:51:11;;;;;;;13.70;8.57;;;;;;;10.82;88.23;101654.91;4991074;28;20373;-49
2023/05/03 03:53:38;;;;;;;14.05;9.40;;;;;;;10.83;88.43;101652.94;4991068;28;20054;-46
2023/05/03 03:56:05;;;;;;;11.30;7.60;;;;;;;10.85;88.50;101653.44;4991230;28;20547;-44
2023/05/03 03:58:31;;;;;;;14.43;7.88;;;;;;;10.86;88.51;101653.09;4990651;28;20430;-45
2023/05/03 04:00:59;;;;;;;10.65;7.88;;;;;;;10.86;88.66;101652.28;4994078;28;20077;-50
2023/05/03 04:03:28;;;;;;;11.93;6.97;;;;;;;10.89;88.83;101652.47;5010343;28;20104;-45
2023/05/03 04:05:55;;;;;;;10.40;7.78;;;;;;;10.91;88.96;101649.34;5009875;28;20042;-47
2023/05/03 04:08:22;;;;;;;10.48;7.38;;;;;;;10.95;88.92;101650.34;5010347;28;20163;-44
2023/05/03 04:10:49;;;;;;;14.60;6.97;;;;;;;10.99;88.97;101654.91;5010110;28;20050;-46
2023/05/03 04:13:16;;;;;;;14.13;6.45;;;;;;;11.00;88.86;101658.50;5010376;28;20053;-44
2023/05/03 04:15:43;;;;;;;10.70;6.90;;;;;;;11.01;89.15;101649.06;5009879;28;20038;-45
2023/05/03 04:18:10;;;;;;;10.88;7.35;;;;;;;11.03;89.04;101652.31;5010311;28;20038;-45
2023/05/03 04:20:37;;;;;;;9.90;6.88;;;;;;;11.05;89.20;101650.03;5009474;28;20507;-45
2023/05/03 04:23:04;;;;;;;10.23;6.20;;;;;;;11.06;89.13;101639.75;5009833;28;20760;-44
2023/05/03 04:25:31;;;;;;;11.10;6.82;;;;;;;11.05;89.07;101644.47;5009762;28;20056;-44
2023/05/03 04:27:58;;;;;;;10.68;6.53;;;;;;;11.06;89.24;101646.13;5009333;28;20136;-44
2023/05/03 04:30:24;;;;;;;11.82;6.80;;;;;;;11.05;89.09;101638.94;5009412;28;20052;-49
2023/05/03 04:32:53;;;;;;;10.48;6.82;;;;;;;11.06;89.39;101646.13;5009821;28;20046;-44
2023/05/03 04:35:20;;;;;;;12.25;6.63;;;;;;;11.06;89.44;101648.88;5008861;28;20046;-46
2023/05/03 04:37:46;;;;;;;10.65;7.13;;;;;;;11.04;89.41;101656.69;5009131;28;20557;-48
2023/05/03 04:40:13;;;;;;;10.27;7.18;;;;;;;11.03;89.45;101646.78;4996600;28;20054;-48
2023/05/03 04:42:41;;;;;;;14.20;8.23;;;;;;;11.01;89.54;101654.59;5009487;28;20050;-45
2023/05/03 04:45:08;;;;;;;10.77;7.53;;;;;;;10.99;89.70;101657.69;5009251;28;20046;-44
2023/05/03 04:47:35;;;;;;;9.65;7.05;;;;;;;10.99;89.62;101659.63;5008978;28;20137;-45
2023/05/03 04:50:03;;;;;;;11.68;7.05;;;;;;;10.99;89.71;101656.84;5009380;28;20150;-44
2023/05/03 04:52:30;;;;;;;11.00;6.70;;;;;;;10.96;89.39;101654.75;5009765;28;20525;-44
2023/05/03 04:54:57;;;;;;;11.93;7.60;;;;;;;10.94;89.63;101654.25;5009427;28;20486;-49
2023/05/03 04:57:24;;;;;;;10.90;7.47;;;;;;;10.94;89.58;101657.03;5009042;28;20056;-44
2023/05/03 04:59:52;;;;;;;12.68;7.70;;;;;;;10.93;89.67;101661.75;5008906;28;20508;-45
2023/05/03 05:02:20;;;;;;;10.75;7.55;;;;;;;10.93;89.48;101663.72;5008573;28;20061;-45
2023/05/03 05:04:47;;;;;;;11.20;7.40;;;;;;;10.91;89.62;101660.44;5009081;28;20132;-44
2023/05/03 05:07:14;;;;;;;13.30;8.23;;;;;;;10.92;89.75;101664.84;5008796;28;20073;-49
2023/05/03 05:09:41;;;;;;;13.73;9.10;;;;;;;10.92;89.85;101662.09;5009432;28;20045;-44
2023/05/03 05:12:08;;;;;;;14.77;7.47;;;;;;;10.93;89.97;101658.19;5009027;28;20056;-48
2023/05/03 05:14:37;;;;;;;13.77;7.63;;;;;;;10.93;89.88;101666.50;4992398;28;20564;-44
2023/05/03 05:17:04;;;;;;;14.23;7.72;;;;;;;10.93;89.92;101660.94;5009096;28;20049;-44
2023/05/03 05:19:31;;;;;;;15.45;7.78;;;;;;;10.93;90.14;101658.97;5009057;28;20372;-45
2023/05/03 05:21:58;;;;;;;13.77;8.32;;;;;;;10.94;90.33;101659.78;5009125;28;20057;-45
2023/05/03 05:24:24;;;;;;;15.80;7.95;;;;;;;10.97;90.45;101664.69;5008727;28;20149;-45
2023/05/03 05:26:51;;;;;;;13.23;8.05;;;;;;;10.98;90.46;101663.56;5009501;28;20042;-44
2023/05/03 05:29:18;;;;;;;13.32;7.55;;;;;;;11.01;90.50;101666.47;5008627;28;20046;-45
2023/05/03 05:31:45;;;;;;;12.07;8.02;;;;;;;11.06;90.65;101673.84;5008865;28;20050;-47
2023/05/03 05:34:12;;;;;;;14.23;8.40;;;;;;;11.09;90.81;101667.63;5008582;28;20140;-50
2023/05/03 05:36:38;;;;;;;18.63;8.63;;;;;;;11.13;90.90;101674.16;5002356;28;20049;-46
2023/05/03 05:39:05;;;;;;;14.35;8.32;;;;;;;11.16;90.88;101679.03;4991909;28;20046;-45
2023/05/03 05:41:32;;;;;;;13.68;9.10;;;;;;;11.19;91.05;101672.03;5006964;28;20476;-46
2023/05/03 05:43:59;;;;;;;14.43;9.77;;;;;;;11.23;90.91;101679.34;5009009;28;20529;-44
2023/05/03 05:46:26;;;;;;;13.43;9.07;;;;;;;11.28;91.20;101681.97;5008448;28;20069;-45
2023/05/03 05:48:53;;;;;;;18.63;9.63;;;;;;;11.34;91.30;101682.59;5012564;28;20056;-48
2023/05/03 05:51:19;;;;;;;15.32;10.15;;;;;;;11.41;91.35;101691.28;4995220;28;20045;-43
2023/05/03 05:53:46;;;;;;;17.27;10.20;;;;;;;11.45;91.33;101692.22;5012267;28;20438;-45
2023/05/03 05:56:13;;;;;;;18.05;9.85;;;;;;;11.51;91.40;101686.19;5012102;28;20087;-45
2023/05/03 05:58:40;;;;;;;15.75;9.93;;;;;;;11.57;91.44;101684.84;5012600;28;20407;-50
2023/05/03 06:01:07;;;;;;;20.15;10.40;;;;;;;11.62;91.54;101693.00;5012648;28;20056;-45
2023/05/03 06:03:34;;;;;;;19.40;10.57;;;;;;;11.67;91.49;101694.00;5011997;28;20037;-45
2023/05/03 06:06:01;;;;;;;16.20;9.95;;;;;;;11.73;91.54;101695.50;5012067;28;20140;-45
2023/05/03 06:08:28;;;;;;;16.02;9.95;;;;;;;11.76;91.74;101697.56;5012261;28;20053;-44
2023/05/03 06:10:54;;;;;;;17.27;10.27;;;;;;;11.75;91.76;101694.00;5011860;28;20050;-44
2023/05/03 06:13:21;;;;;;;16.85;10.30;;;;;;;11.77;91.90;101694.50;5011943;28;20050;-47
2023/05/03 06:15:48;;;;;;;22.00;10.68;;;;;;;11.81;91.80;101701.00;4999023;28;20042;-46
2023/05/03 06:18:15;;;;;;;19.25;9.82;;;;;;;11.82;91.82;101696.25;5012439;28;20045;-50
2023/05/03 06:20:42;;;;;;;16.60;9.85;;;;;;;11.85;91.86;101687.28;5011761;28;20038;-44
2023/05/03 06:23:09;;;;;;;24.30;11.00;;;;;;;11.89;91.90;101688.25;5011909;28;20045;-44
2023/05/03 06:25:36;;;;;;;19.30;9.45;;;;;;;11.94;92.06;101688.09;5011540;28;20062;-48
2023/05/03 06:28:03;;;;;;;20.63;10.68;;;;;;;11.96;92.10;101692.16;4994551;28;20045;-44
2023/05/03 06:30:30;;;;;;;21.27;11.65;;;;;;;12.01;91.90;101680.06;5011233;28;20041;-48
2023/05/03 06:32:57;;;;;;;17.42;10.48;;;;;;;12.05;91.64;101681.81;5011636;28;20080;-44
2023/05/03 06:35:24;;;;;;;21.77;9.88;;;;;;;12.08;91.85;101674.78;5023679;28;20042;-45
2023/05/03 06:37:51;;;;;;;16.15;10.18;;;;;;;12.12;91.54;101684.09;5009138;28;20046;-52
2023/05/03 06:40:18;;;;;;;18.05;10.50;;;;;;;12.16;91.44;101685.03;5011448;28;20045;-44
2023/05/03 06:42:45;;;;;;;17.58;9.52;;;;;;;12.19;91.32;101678.84;5011129;28;20049;-46
2023/05/03 06:45:11;;;;;;;18.10;10.13;;;;;;;12.23;91.06;101675.03;5011696;28;20140;-45
2023/05/03 06:47:41;;;;;;;22.70;9.73;;;;;;;12.29;91.26;101675.69;5011347;28;20042;-47
2023/05/03 06:50:09;;;;;;;15.32;8.82;;;;;;;12.34;90.91;101669.13;5011790;28;20053;-51
2023/05/03 06:52:36;;;;;;;13.82;9.13;;;;;;;12.38;91.03;101676.47;5011392;28;20061;-44
2023/05/03 06:55:03;;;;;;;13.27;9.10;;;;;;;12.41;90.44;101675.78;5011533;28;20042;-45
2023/05/03 06:57:30;;;;;;;14.90;8.27;;;;;;;12.43;90.44;101676.25;5011836;28;20057;-45
2023/05/03 06:59:57;;;;;;;18.17;8.20;;;;;;;12.48;90.27;101676.06;5010513;28;20042;-44
2023/05/03 07:02:25;;;;;;;16.08;8.75;;;;;;;12.53;90.07;101684.22;5011206;28;20042;-44
2023/05/03 07:04:52;;;;;;;12.30;7.75;;;;;;;12.58;89.93;101675.69;5011245;28;20054;-45
2023/05/03 07:07:19;;;;;;;12.40;8.32;;;;;;;12.62;89.66;101679.44;4994082;28;20052;-44
2023/05/03 07:09:46;;;;;;;14.27;7.60;;;;;;;12.65;89.29;101684.31;5011506;28;20109;-44
2023/05/03 07:12:13;;;;;;;17.05;8.95;;;;;;;12.69;89.23;101676.91;5011010;28;20484;-44
2023/05/03 07:14:40;;;;;;;9.65;6.47;;;;;;;12.75;89.07;101691.44;4993647;28;20050;-45
2023/05/03 07:17:08;;;;;;;11.90;6.88;;;;;;;12.78;88.92;101685.22;5010609;28;20053;-48
2023/05/03 07:19:36;;;;;;;16.58;6.70;;;;;;;12.79;88.50;101682.09;4992839;28;20064;-47
2023/05/03 07:22:03;;;;;;;12.77;7.03;;;;;;;12.81;88.36;101678.97;5010656;28;20046;-44
2023/05/03 07:24:29;;;;;;;12.93;6.78;;;;;;;12.80;87.87;101671.78;5006742;28;20062;-52
2023/05/03 07:26:57;;;;;;;14.45;5.85;;;;;;;12.79;87.34;101682.09;5004932;28;20062;-47
2023/05/03 07:29:25;;;;;;;11.57;5.57;;;;;;;12.79;86.78;101679.31;4970601;28;20065;-48
2023/05/03 07:31:53;;;;;;;8.23;4.88;;;;;;;12.82;86.69;101681.41;4987394;28;20393;-54
2023/05/03 07:34:20;;;;;;;8.35;5.68;;;;;;;12.83;86.38;101677.50;4989651;28;20046;-48
2023/05/03 07:36:47;;;;;;;10.25;5.90;;;;;;;12.82;86.10;101678.63;4989723;28;20054;-48
2023/05/03 07:39:14;;;;;;;8.40;5.00;;;;;;;12.85;85.76;101679.91;4989813;28;20042;-48
2023/05/03 07:41:40;;;;;;;12.00;5.85;;;;;;;12.89;85.52;101680.88;4995289;28;20522;-45
2023/05/03 07:44:08;;;;;;;12.30;5.22;;;;;;;12.91;85.20;101672.19;5003588;28;20534;-50
2023/05/03 07:46:35;;;;;;;12.00;5.38;;;;;;;12.90;85.24;101679.72;5001919;28;20479;-45
2023/05/03 07:49:03;;;;;;;12.32;5.00;;;;;;;12.92;85.08;101673.84;5003703;28;20081;-45
2023/05/03 07:51:38;;;;;;;11.05;5.80;;;;;;;12.93;84.96;101676.25;4991418;28;20069;-45
2023/05/03 07:54:05;;;;;;;12.95;5.50;;;;;;;12.92;84.77;101668.28;5002848;28;20384;-44
2023/05/03 07:56:32;;;;;;;9.10;5.53;;;;;;;12.92;84.68;101673.84;4996894;28;20097;-44
2023/05/03 07:58:59;;;;;;;11.00;6.10;;;;;;;12.92;84.55;101671.84;4998138;28;20042;-47
2023/05/03 08:01:29;;;;;;;13.50;5.63;;;;;;;12.92;84.53;101673.84;4996165;28;20158;-45
2023/05/03 08:03:57;;;;;;;7.45;5.43;;;;;;;12.88;84.17;101661.75;4982591;28;20141;-46
2023/05/03 08:06:24;;;;;;;13.15;7.07;;;;;;;12.86;84.17;101670.44;4979050;28;20083;-47
2023/05/03 08:08:51;;;;;;;8.68;5.55;;;;;;;12.88;84.28;101672.88;4974358;28;20054;-45
2023/05/03 08:11:18;;;;;;;15.07;8.48;;;;;;;12.86;83.97;101675.19;4980407;28;20046;-49
2023/05/03 08:13:45;;;;;;;13.05;6.63;;;;;;;12.84;84.11;101661.59;4965924;28;20049;-52
2023/05/03 08:16:12;;;;;;;12.65;7.28;;;;;;;12.81;84.32;101674.22;4948703;28;20063;-45
2023/05/03 08:18:39;;;;;;;12.00;7.70;;;;;;;12.81;84.38;101674.22;4954574;28;20042;-48
2023/05/03 08:21:07;;;;;;;15.75;7.35;;;;;;;12.81;84.36;101682.56;4964543;28;20058;-47
2023/05/03 08:23:35;;;;;;;15.13;7.68;;;;;;;12.85;84.24;101668.81;4959626;28;20051;-53
2023/05/03 08:26:03;;;;;;;12.85;8.13;;;;;;;12.90;84.22;101670.56;4954559;28;20050;-45
2023/05/03 08:28:30;;;;;;;13.65;7.63;;;;;;;12.95;84.33;101668.41;4966057;28;20038;-48
2023/05/03 08:30:57;;;;;;;16.48;7.55;;;;;;;12.98;84.26;101672.47;4960215;28;20097;-45
2023/05/03 08:33:23;;;;;;;14.60;7.85;;;;;;;13.03;84.38;101669.47;4962784;28;20598;-45
2023/05/03 08:35:51;;;;;;;14.43;8.27;;;;;;;13.09;84.39;101670.94;4951191;28;20051;-51
2023/05/03 08:38:18;;;;;;;17.88;8.35;;;;;;;13.16;84.25;101665.63;4960453;28;20046;-51
2023/05/03 08:40:49;;;;;;;11.95;8.35;;;;;;;13.24;84.21;101654.44;4952569;28;20059;-45
2023/05/03 08:43:20;;;;;;;37.63;10.85;;;;;;;13.29;84.11;101668.13;4967415;28;20050;-49
2023/05/03 08:45:47;;;;;;;14.75;7.50;;;;;;;13.41;84.01;101664.59;4979660;28;20058;-50
2023/05/03 08:48:14;;;;;;;16.20;9.38;;;;;;;13.52;83.98;101665.81;4980366;28;20085;-45
2023/05/03 08:50:43;;;;;;;14.18;7.93;;;;;;;13.60;83.67;101666.88;4981650;28;20062;-47
2023/05/03 08:53:10;;;;;;;16.05;7.90;;;;;;;13.68;83.31;101664.00;4981739;28;20050;-45
2023/05/03 08:55:37;;;;;;;22.30;8.35;;;;;;;13.73;82.91;101661.00;4975627;28;20496;-50
2023/05/03 08:58:09;;;;;;;12.80;8.75;;;;;;;13.81;82.96;101662.06;4981755;28;20575;-45
2023/05/03 09:00:37;;;;;;;15.57;8.02;;;;;;;13.89;82.90;101670.31;4981479;28;20069;-45
2023/05/03 09:03:04;;;;;;;11.60;7.53;;;;;;;13.92;82.67;101664.06;5000846;28;20046;-46
2023/05/03 09:05:33;;;;;;;11.60;7.78;;;;;;;13.95;82.28;101663.34;5000893;28;20041;-46
2023/05/03 09:08:08;;;;;;;13.05;7.65;;;;;;;13.97;82.36;101666.63;5001270;28;20479;-46
2023/05/03 09:10:40;;;;;;;14.48;7.25;;;;;;;14.04;82.11;101658.50;4995570;28;20049;-46
2023/05/03 09:13:09;;;;;;;17.52;7.72;;;;;;;14.15;82.01;101667.22;4999033;28;20046;-46
2023/05/03 09:15:36;;;;;;;10.70;7.25;;;;;;;14.30;81.89;101672.06;4999656;28;20076;-46
2023/05/03 09:18:07;;;;;;;16.33;9.40;;;;;;;14.43;81.67;101667.34;4990044;28;20065;-45
2023/05/03 09:20:35;;;;;;;18.88;7.40;;;;;;;14.50;81.50;101670.38;5001009;28;20124;-51
2023/05/03 09:23:03;;;;;;;16.27;7.38;;;;;;;14.49;81.33;101665.97;5005027;28;20415;-45
2023/05/03 09:25:50;;;;;;;24.02;8.32;;;;;;;14.48;81.34;101661.56;5006390;28;20042;-45
2023/05/03 09:28:18;;;;;;;20.35;8.20;;;;;;;14.47;81.29;101663.53;4989270;28;20050;-47
2023/05/03 09:30:47;;;;;;;13.68;7.55;;;;;;;14.52;81.22;101654.94;5002682;28;20046;-48
2023/05/03 09:33:20;;;;;;;20.13;7.90;;;;;;;14.58;81.29;101655.50;5005905;28;20046;-45
2023/05/03 09:35:58;;;;;;;17.25;8.77;;;;;;;14.57;80.75;101653.88;5004939;28;20053;-45
2023/05/03 09:38:33;;;;;;;14.50;7.03;;;;;;;14.64;80.83;101660.47;4998701;28;20037;-45
2023/05/03 09:41:04;;;;;;;12.05;7.93;;;;;;;14.77;80.44;101650.16;5007407;28;20100;-46
2023/05/03 09:43:32;;;;;;;;;;;;;;;14.87;80.31;101644.09;5007035;28;20050;-45
2023/05/03 09:46:11;;;;;;;9.55;6.30;;;;;;;15.01;79.99;101647.28;5006213;28;19931;-46
2023/05/03 09:48:39;;;;;;;15.52;8.40;;;;;;;15.02;79.11;101640.53;5007632;28;20156;-47
2023/05/03 09:51:07;;;;;;;16.80;7.07;;;;;;;15.12;78.96;101650.38;5008289;28;20458;-46
2023/05/03 09:53:35;;;;;;;11.88;7.30;;;;;;;15.14;78.13;101637.69;5007156;28;20061;-52
2023/05/03 09:56:05;;;;;;;14.10;8.20;;;;;;;15.23;77.78;101646.75;5007034;28;20053;-46
2023/05/03 09:58:33;;;;;;;20.02;7.53;;;;;;;15.22;77.29;101653.47;5007476;28;20149;-45
2023/05/03 10:01:01;;;;;;;12.43;6.40;;;;;;;15.40;77.24;101640.06;5010033;28;20068;-48
2023/05/03 10:03:38;;;;;;;11.43;5.72;;;;;;;15.78;76.34;101636.72;5027193;28;20080;-47
2023/05/03 10:06:10;;;;;;;17.58;7.38;;;;;;;16.06;75.21;101639.44;5026899;28;20049;-49
2023/05/03 10:08:44;;;;;;;13.02;7.40;;;;;;;16.05;74.81;101649.78;5026829;28;20123;-46
2023/05/03 10:11:15;;;;;;;11.77;6.70;;;;;;;15.88;74.65;101652.97;5027481;28;20065;-49
2023/05/03 10:13:42;;;;;;;13.57;6.82;;;;;;;15.65;74.78;101654.69;5026965;28;20052;-45
2023/05/03 10:16:13;;;;;;;12.75;6.40;;;;;;;15.49;74.82;101642.72;5026133;28;20060;-45
2023/05/03 10:18:49;;;;;;;13.95;6.93;;;;;;;15.49;74.87;101653.88;5026604;28;20037;-47
2023/05/03 10:22:02;;;;;;;14.32;7.65;;;;;;;15.74;74.12;101649.78;5027030;28;20059;-47
2023/05/03 10:24:28;;;;;;;14.77;6.65;;;;;;;16.07;73.30;101661.41;5001827;28;20171;-50
2023/05/03 10:26:56;;;;;;;12.73;6.80;;;;;;;16.38;72.53;101657.81;5026468;28;20092;-48
2023/05/03 10:29:33;;;;;;;20.25;7.10;;;;;;;16.78;71.45;101652.00;5026685;28;20061;-48
2023/05/03 10:32:01;;;;;;;14.00;6.47;;;;;;;17.05;69.89;101659.38;5026452;28;20501;-47
2023/05/03 10:34:32;;;;;;;15.80;7.20;;;;;;;17.21;69.65;101657.31;5025382;28;20061;-47
2023/05/03 10:37:09;;;;;;;14.82;8.35;;;;;;;17.13;69.21;101658.34;5024063;28;20093;-48
2023/05/03 10:39:36;;;;;;;15.65;7.03;;;;;;;17.06;69.13;101661.00;5024252;28;20054;-45
2023/05/03 10:42:07;;;;;;;24.33;8.20;;;;;;;17.13;68.89;101649.94;5024459;28;20061;-48
2023/05/03 10:44:38;;;;;;;13.35;6.50;;;;;;;17.26;68.89;101654.22;5006630;28;20580;-44
2023/05/03 10:47:11;;;;;;;13.02;6.50;;;;;;;17.33;68.45;101647.97;5025364;28;20099;-43
2023/05/03 10:49:38;;;;;;;17.35;7.40;;;;;;;17.32;68.29;101651.94;5024492;28;20482;-47
2023/05/03 10:52:50;;;;;;;10.85;5.75;;;;;;;17.40;68.41;101651.72;5024057;28;20060;-44
2023/05/03 10:55:19;;;;;;;18.45;6.88;;;;;;;17.40;68.21;101643.31;5020574;28;20446;-45
2023/05/03 10:57:48;;;;;;;13.23;5.45;;;;;;;17.38;67.97;101642.88;5023609;28;20542;-45
2023/05/03 11:00:34;;;;;;;15.10;6.40;;;;;;;17.30;67.99;101632.72;5024057;28;20049;-45
2023/05/03 11:03:01;;;;;;;15.13;6.63;;;;;;;17.26;67.65;101643.03;5023205;28;20092;-48
2023/05/03 11:05:30;;;;;;;18.73;8.05;;;;;;;17.12;67.54;101655.94;5024089;28;20053;-47
2023/05/03 11:08:17;;;;;;;10.68;5.82;;;;;;;16.93;67.99;101645.53;5024093;28;20068;-46
2023/05/03 11:10:45;;;;;;;12.45;5.68;;;;;;;16.75;67.44;101649.91;5023786;28;20068;-46
2023/05/03 11:13:13;;;;;;;17.33;7.30;;;;;;;16.45;67.60;101652.38;5023090;28;20054;-48
2023/05/03 11:15:40;;;;;;;11.95;5.65;;;;;;;16.14;67.38;101642.06;5005987;28;20133;-44
2023/05/03 11:18:10;;;;;;;11.48;5.80;;;;;;;16.09;67.93;101644.31;5024156;28;20494;-43
2023/05/03 11:20:37;;;;;;;12.88;5.38;;;;;;;16.03;67.91;101646.56;5024674;28;20581;-49
2023/05/03 11:23:06;;;;;;;15.57;6.32;;;;;;;15.94;67.72;101643.13;5023439;28;20142;-45